Time;durP1;ratioP1;P1;durP2;ratioP2;P2;SDS_P1;SDS_P2;PMS_P1;PMS_P2;Temp;Humidity;BMP_temperature;BMP_pressure;BME280_temperature;BME280_humidity;BME280_pressure;Samples;Min_cycle;Max_cycle;Signal;HPM_P1;HPM_P2
2022/11/19 00:02:16;;;;;;;4.70;3.10;;;3.50;99.90;4.40;95630.00;;;;5049885;28;20423;-67
2022/11/19 00:05:05;;;;;;;3.20;2.83;;;3.50;99.90;4.60;95641.00;;;;5049144;28;20471;-68
2022/11/19 00:07:54;;;;;;;4.53;3.00;;;3.50;99.90;4.80;95645.00;;;;5049169;28;20443;-67
2022/11/19 00:10:45;;;;;;;6.63;4.03;;;3.50;99.90;4.70;95650.00;;;;5048291;28;20547;-67
2022/11/19 00:13:33;;;;;;;7.53;4.13;;;3.50;99.90;4.70;95661.00;;;;5037420;28;20425;-68
2022/11/19 00:16:21;;;;;;;4.00;3.27;;;3.60;99.90;4.50;95647.00;;;;5047831;28;20274;-68
2022/11/19 00:19:11;;;;;;;5.60;3.60;;;3.60;99.90;4.50;95666.00;;;;5048885;28;20240;-67
2022/11/19 00:22:00;;;;;;;5.87;3.50;;;3.60;99.90;4.70;95671.00;;;;5049801;28;20458;-67
2022/11/19 00:24:48;;;;;;;3.67;3.33;;;3.60;99.90;4.60;95669.00;;;;5050021;28;20471;-67
2022/11/19 00:27:38;;;;;;;15.73;4.57;;;3.60;99.90;4.60;95686.00;;;;5050011;28;20838;-67
2022/11/19 00:30:27;;;;;;;5.57;3.83;;;3.50;99.90;4.60;95684.00;;;;5051706;28;20435;-67
2022/11/19 00:33:36;;;;;;;5.20;3.10;;;3.60;99.90;4.70;95693.00;;;;5053046;28;20438;-67
2022/11/19 00:36:25;;;;;;;5.40;3.60;;;3.60;99.90;4.30;95694.00;;;;5053260;28;20439;-67
2022/11/19 00:39:14;;;;;;;4.90;3.43;;;3.60;99.90;4.80;95704.00;;;;5053249;28;20415;-67
2022/11/19 00:42:03;;;;;;;4.20;3.77;;;3.60;99.90;5.00;95708.00;;;;5043416;28;20455;-67
2022/11/19 00:44:53;;;;;;;6.87;5.80;;;3.70;99.90;5.20;95697.00;;;;5048301;28;20554;-67
2022/11/19 00:47:41;;;;;;;6.13;3.83;;;3.80;99.90;5.10;95711.00;;;;5048588;28;20937;-67
2022/11/19 00:50:30;;;;;;;5.40;4.33;;;3.90;99.90;5.10;95727.00;;;;5039416;28;20793;-67
2022/11/19 00:53:19;;;;;;;6.40;4.57;;;4.00;99.90;5.20;95717.00;;;;5044595;28;20232;-67
2022/11/19 00:56:10;;;;;;;8.43;5.70;;;4.00;99.90;5.40;95727.00;;;;5053044;28;20719;-67
2022/11/19 00:58:59;;;;;;;8.70;5.53;;;4.10;99.90;5.50;95714.00;;;;5053065;28;20362;-67
2022/11/19 01:01:49;;;;;;;9.07;5.10;;;4.20;99.90;5.10;95703.00;;;;5052842;28;20201;-67
2022/11/19 01:04:38;;;;;;;5.33;4.00;;;4.30;99.90;5.00;95716.00;;;;5052650;28;20278;-68
2022/11/19 01:07:27;;;;;;;8.87;5.50;;;4.20;99.90;5.20;95715.00;;;;5052263;28;20834;-68
2022/11/19 01:10:16;;;;;;;9.13;5.63;;;4.20;99.90;5.30;95707.00;;;;5041817;28;20286;-68
2022/11/19 01:16:14;;;;;;;7.27;4.93;;;4.30;99.90;5.20;95722.00;;;;5046678;28;20257;-67
2022/11/19 01:19:07;;;;;;;7.73;5.47;;;4.30;99.90;4.80;95719.00;;;;5041250;28;20368;-67
2022/11/19 01:21:56;;;;;;;7.40;4.77;;;4.20;99.90;4.90;95720.00;;;;5051640;28;20229;-68
2022/11/19 01:24:44;;;;;;;5.83;5.10;;;4.20;99.90;5.00;95709.00;;;;5040625;28;20274;-67
2022/11/19 01:27:33;;;;;;;9.27;5.80;;;4.20;99.90;5.00;95720.00;;;;5048875;28;20208;-68
2022/11/19 01:30:22;;;;;;;8.20;6.17;;;4.20;99.90;4.90;95724.00;;;;5050763;28;20209;-68
2022/11/19 01:33:11;;;;;;;7.77;5.63;;;4.20;99.90;4.80;95729.00;;;;5046411;28;20197;-69
2022/11/19 01:36:03;;;;;;;8.23;5.80;;;4.10;99.90;4.90;95730.00;;;;5038963;28;20233;-67
2022/11/19 01:38:53;;;;;;;10.03;4.90;;;4.20;99.90;4.90;95731.00;;;;5050345;28;20847;-67
2022/11/19 01:41:41;;;;;;;5.93;4.27;;;4.20;99.90;4.80;95728.00;;;;5038499;28;20946;-68
2022/11/19 01:45:01;;;;;;;6.57;4.17;;;4.10;99.90;5.10;95746.00;;;;5051751;28;20490;-67
2022/11/19 01:47:50;;;;;;;6.37;5.07;;;4.20;99.90;5.10;95750.00;;;;5052726;28;20461;-67
2022/11/19 01:50:44;;;;;;;6.93;5.60;;;4.20;99.90;5.10;95750.00;;;;5038598;28;20432;-67
2022/11/19 01:53:36;;;;;;;8.43;5.70;;;4.30;99.90;5.10;95749.00;;;;5044269;28;20502;-67
2022/11/19 01:56:26;;;;;;;8.10;6.27;;;4.20;99.90;5.20;95747.00;;;;5049902;28;20275;-68
2022/11/19 01:59:18;;;;;;;7.53;5.57;;;4.30;99.90;5.10;95747.00;;;;5051547;28;20193;-67
2022/11/19 02:02:07;;;;;;;11.47;5.20;;;4.20;99.90;5.10;95753.00;;;;5038254;28;20224;-67
2022/11/19 02:04:56;;;;;;;10.97;6.40;;;4.20;99.90;5.00;95749.00;;;;5050817;28;20228;-67
2022/11/19 02:07:56;;;;;;;10.60;6.47;;;4.20;99.90;5.10;95753.00;;;;5047285;28;20224;-67
2022/11/19 02:10:59;;;;;;;12.63;7.03;;;4.20;99.90;5.00;95754.00;;;;5051234;28;20579;-67
2022/11/19 02:13:58;;;;;;;6.20;5.00;;;4.20;99.90;4.90;95762.00;;;;5043903;28;20424;-67
2022/11/19 02:17:00;;;;;;;5.87;4.57;;;4.20;99.90;4.90;95759.00;;;;5041611;28;20238;-68
2022/11/19 02:20:41;;;;;;;4.60;4.20;;;4.20;99.90;4.60;95765.00;;;;5051600;28;20197;-66
2022/11/19 02:24:12;;;;;;;6.80;4.27;;;4.10;99.90;4.50;95768.00;;;;5042058;28;20921;-66
2022/11/19 02:28:01;;;;;;;7.17;3.93;;;3.90;99.90;4.40;95761.00;;;;5038325;28;20881;-67
2022/11/19 02:30:54;;;;;;;6.03;4.43;;;3.90;99.90;4.50;95769.00;;;;5042869;28;20958;-67
2022/11/19 02:33:48;;;;;;;7.30;4.63;;;3.80;99.90;4.60;95765.00;;;;5049462;28;20440;-67
2022/11/19 02:36:42;;;;;;;4.40;3.97;;;3.80;99.90;4.70;95774.00;;;;5039575;28;20475;-66
2022/11/19 02:39:39;;;;;;;5.43;3.70;;;3.90;99.90;4.60;95770.00;;;;5041027;28;20525;-67
2022/11/19 02:42:32;;;;;;;4.80;4.37;;;3.90;99.90;4.40;95774.00;;;;5035691;28;20688;-67
2022/11/19 02:45:26;;;;;;;5.60;4.70;;;3.80;99.90;4.80;95775.00;;;;5049030;28;20479;-67
2022/11/19 02:48:21;;;;;;;5.60;4.83;;;3.90;99.90;4.80;95778.00;;;;5049271;28;20428;-66
2022/11/19 02:51:11;;;;;;;6.50;4.37;;;3.90;99.90;4.40;95775.00;;;;5043550;28;20489;-66
2022/11/19 02:54:00;;;;;;;6.13;4.93;;;3.80;99.90;4.40;95774.00;;;;5037843;28;20197;-67
2022/11/19 02:56:51;;;;;;;9.40;4.97;;;3.80;99.90;4.60;95774.00;;;;5051066;28;20521;-67
2022/11/19 03:06:19;;;;;;;6.97;5.17;;;3.70;99.90;4.60;95807.00;;;;5037201;28;20569;-67
2022/11/19 03:09:08;;;;;;;6.00;5.33;;;3.80;99.90;4.70;95798.00;;;;5039158;28;20927;-66
2022/11/19 03:12:08;;;;;;;6.13;4.00;;;3.80;99.90;4.60;95802.00;;;;5048938;28;20522;-66
2022/11/19 03:18:32;;;;;;;6.47;4.70;;;3.80;99.90;4.30;95799.00;;;;5049734;28;20521;-67
2022/11/19 03:21:30;;;;;;;6.60;4.40;;;3.70;99.90;4.40;95792.00;;;;5050728;28;20204;-67
2022/11/19 03:24:25;;;;;;;7.20;5.67;;;3.70;99.90;4.10;95812.00;;;;5050708;28;20473;-66
2022/11/19 03:27:20;;;;;;;8.27;5.70;;;3.60;99.90;4.00;95809.00;;;;5050078;28;20213;-66
2022/11/19 03:30:12;;;;;;;6.20;4.87;;;3.50;99.90;4.30;95814.00;;;;5050164;28;20431;-67
2022/11/19 03:33:04;;;;;;;5.83;4.93;;;3.50;99.90;4.00;95821.00;;;;5050752;28;20505;-66
2022/11/19 03:35:57;;;;;;;6.97;4.63;;;3.40;99.90;4.10;95827.00;;;;5036116;28;20435;-67
2022/11/19 03:38:53;;;;;;;4.50;4.10;;;3.40;99.90;4.10;95821.00;;;;5049136;28;20427;-66
2022/11/19 03:41:44;;;;;;;6.63;4.00;;;3.40;99.90;4.10;95816.00;;;;5033516;28;21018;-67
2022/11/19 03:44:37;;;;;;;5.87;4.23;;;3.40;99.90;4.20;95827.00;;;;5047804;28;21006;-67
2022/11/19 03:47:32;;;;;;;4.00;3.17;;;3.30;99.90;4.00;95814.00;;;;5038440;28;20474;-67
2022/11/19 03:50:29;;;;;;;6.57;3.93;;;3.30;99.90;3.60;95824.00;;;;5048949;28;20467;-67
2022/11/19 03:53:18;;;;;;;6.77;4.47;;;3.20;99.90;3.70;95838.00;;;;5050073;28;20473;-66
2022/11/19 03:56:12;;;;;;;3.73;3.20;;;3.20;99.90;3.60;95839.00;;;;5050071;28;20978;-67
2022/11/19 03:59:03;;;;;;;3.40;2.97;;;3.10;99.90;3.50;95849.00;;;;5050393;28;20427;-67
2022/11/19 04:01:55;;;;;;;4.13;3.73;;;3.10;99.90;3.50;95845.00;;;;5043107;28;20501;-66
2022/11/19 04:04:43;;;;;;;5.43;4.00;;;3.00;99.90;3.50;95839.00;;;;5048785;28;20807;-67
2022/11/19 04:07:32;;;;;;;4.07;3.17;;;3.00;99.90;3.90;95849.00;;;;5041388;28;20553;-66
2022/11/19 04:10:21;;;;;;;4.10;3.50;;;3.00;99.90;3.90;95858.00;;;;5042134;28;21055;-67
2022/11/19 04:13:11;;;;;;;4.50;3.77;;;3.10;99.90;4.10;95864.00;;;;5036412;28;20517;-67
2022/11/19 04:15:59;;;;;;;4.03;3.40;;;3.10;99.90;3.90;95858.00;;;;5049898;28;20985;-67
2022/11/19 04:18:48;;;;;;;4.40;3.33;;;3.10;99.90;3.80;95865.00;;;;5049562;28;20420;-66
2022/11/19 04:21:37;;;;;;;8.20;4.47;;;3.10;99.90;3.90;95863.00;;;;5044102;28;20435;-67
2022/11/19 04:24:25;;;;;;;6.63;3.67;;;3.10;99.90;3.90;95860.00;;;;5042399;28;21269;-67
2022/11/19 04:27:14;;;;;;;4.43;3.53;;;3.10;99.90;4.00;95859.00;;;;5048133;28;20464;-67
2022/11/19 04:30:05;;;;;;;4.53;3.97;;;3.10;99.90;4.00;95854.00;;;;5050090;28;20423;-67
2022/11/19 04:32:54;;;;;;;10.77;4.87;;;3.10;99.90;3.80;95864.00;;;;5032365;28;20508;-67
2022/11/19 04:35:45;;;;;;;3.37;3.07;;;3.10;99.90;3.60;95855.00;;;;5047838;28;20455;-67
2022/11/19 04:38:34;;;;;;;6.30;3.87;;;3.00;99.90;3.60;95866.00;;;;5046422;28;20501;-67
2022/11/19 04:41:24;;;;;;;6.10;4.07;;;3.00;99.90;3.70;95865.00;;;;5041111;28;20968;-67
2022/11/19 04:44:12;;;;;;;4.87;3.37;;;3.00;99.90;3.80;95859.00;;;;5046179;28;20427;-67
2022/11/19 04:47:02;;;;;;;4.07;3.63;;;3.00;99.90;3.80;95870.00;;;;5048501;28;20501;-66
2022/11/19 04:49:51;;;;;;;3.40;3.10;;;3.00;99.90;3.50;95858.00;;;;5049586;28;20430;-66
2022/11/19 04:52:40;;;;;;;5.17;3.53;;;2.90;99.90;3.60;95868.00;;;;5044801;28;20452;-67
2022/11/19 04:55:29;;;;;;;6.83;3.70;;;2.90;99.90;3.80;95866.00;;;;5035731;28;20446;-67
2022/11/19 04:58:17;;;;;;;6.83;4.63;;;2.90;99.90;3.80;95875.00;;;;5049208;28;20469;-67
2022/11/19 05:01:07;;;;;;;5.00;4.50;;;2.90;99.90;3.80;95888.00;;;;5048946;28;20428;-67
2022/11/19 05:03:57;;;;;;;6.50;4.33;;;3.00;99.90;3.80;95884.00;;;;5040641;28;20849;-67
2022/11/19 05:06:45;;;;;;;9.90;4.00;;;3.00;99.90;3.50;95890.00;;;;5034441;28;20597;-67
2022/11/19 05:09:34;;;;;;;5.43;3.90;;;3.00;99.90;3.40;95891.00;;;;5049026;28;20918;-67
2022/11/19 05:12:23;;;;;;;7.90;3.97;;;2.90;99.90;3.30;95883.00;;;;5049378;28;20783;-67
2022/11/19 05:15:12;;;;;;;6.10;4.13;;;2.80;99.90;3.40;95895.00;;;;5041150;28;20460;-67
2022/11/19 05:18:00;;;;;;;3.77;2.80;;;2.80;99.90;3.30;95903.00;;;;5042954;28;20423;-67
2022/11/19 05:20:50;;;;;;;5.20;3.60;;;2.90;99.90;3.00;95887.00;;;;5048757;28;20790;-67
2022/11/19 05:23:39;;;;;;;5.77;4.17;;;2.70;99.90;3.10;95911.00;;;;5051942;28;20423;-67
2022/11/19 05:26:28;;;;;;;9.53;4.97;;;2.70;99.90;3.20;95919.00;;;;5049672;28;20577;-67
2022/11/19 05:29:16;;;;;;;6.10;4.67;;;2.70;99.90;3.50;95928.00;;;;5053148;28;20432;-67
2022/11/19 05:32:05;;;;;;;6.27;4.60;;;2.70;99.90;3.50;95928.00;;;;5049677;28;20436;-67
2022/11/19 05:34:54;;;;;;;6.80;4.80;;;2.80;99.90;3.40;95933.00;;;;5038876;28;20443;-67
2022/11/19 05:37:44;;;;;;;4.37;3.83;;;2.80;99.90;3.30;95933.00;;;;5040726;28;21021;-67
2022/11/19 05:40:33;;;;;;;8.20;5.07;;;2.70;99.90;3.60;95932.00;;;;5048786;28;20436;-67
2022/11/19 05:43:21;;;;;;;8.47;5.10;;;2.70;99.90;3.80;95949.00;;;;5046324;28;20431;-67
2022/11/19 05:46:10;;;;;;;9.80;4.63;;;2.90;99.90;3.60;95936.00;;;;5043439;28;20472;-67
2022/11/19 05:48:59;;;;;;;7.33;4.37;;;2.80;99.90;3.30;95951.00;;;;5039103;28;20909;-67
2022/11/19 05:51:47;;;;;;;7.93;4.97;;;2.80;99.90;3.40;95947.00;;;;5048458;28;20469;-67
2022/11/19 05:54:37;;;;;;;7.47;5.13;;;2.70;99.90;3.40;95955.00;;;;5050468;28;20954;-67
2022/11/19 05:57:26;;;;;;;7.93;5.30;;;2.70;99.90;3.40;95961.00;;;;5042371;28;20444;-67
2022/11/19 06:00:16;;;;;;;5.53;4.30;;;2.70;99.90;3.50;95978.00;;;;5040148;28;20497;-67
2022/11/19 06:03:05;;;;;;;11.10;6.13;;;2.80;99.90;3.60;95980.00;;;;5037943;28;20473;-67
2022/11/19 06:05:54;;;;;;;10.63;5.33;;;2.70;99.90;3.50;95985.00;;;;5041286;28;20436;-67
2022/11/19 06:08:42;;;;;;;4.93;3.40;;;2.70;99.90;3.10;95990.00;;;;5050393;28;20439;-67
2022/11/19 06:11:49;;;;;;;8.60;4.17;;;2.70;99.90;3.20;95984.00;;;;5035498;28;20539;-68
2022/11/19 06:14:37;;;;;;;19.60;8.73;;;2.70;99.90;3.50;95999.00;;;;5045212;28;20443;-67
2022/11/19 06:17:26;;;;;;;19.50;10.00;;;2.80;99.90;3.70;96007.00;;;;5045719;28;20430;-67
2022/11/19 06:20:15;;;;;;;10.93;7.83;;;2.90;99.90;3.40;96001.00;;;;5042927;28;20439;-67
2022/11/19 06:23:03;;;;;;;6.00;3.83;;;2.70;99.90;3.20;96005.00;;;;5040536;28;20509;-67
2022/11/19 06:25:54;;;;;;;4.27;3.50;;;2.70;99.90;3.30;95998.00;;;;5048664;28;21092;-67
2022/11/19 06:28:44;;;;;;;6.67;5.33;;;2.70;99.90;3.20;96009.00;;;;5043441;28;20447;-67
2022/11/19 06:31:33;;;;;;;6.50;4.60;;;2.70;99.90;3.40;96015.00;;;;5040082;28;20427;-67
2022/11/19 06:34:22;;;;;;;4.93;3.10;;;2.60;99.90;3.20;96023.00;;;;5038238;28;20438;-68
2022/11/19 06:37:13;;;;;;;11.73;5.20;;;2.70;99.90;3.30;96026.00;;;;5042302;28;20442;-67
2022/11/19 06:40:02;;;;;;;7.83;5.33;;;2.70;99.90;3.80;96031.00;;;;5040274;28;20969;-67
2022/11/19 06:42:50;;;;;;;7.70;5.93;;;2.70;99.90;3.90;96030.00;;;;5041833;28;20888;-67
2022/11/19 06:45:42;;;;;;;5.33;3.87;;;2.80;99.90;3.30;96031.00;;;;5040620;28;20475;-67
2022/11/19 06:48:30;;;;;;;7.97;3.73;;;2.80;99.90;3.20;96024.00;;;;5040343;28;20439;-67
2022/11/19 06:51:19;;;;;;;7.17;4.77;;;2.80;99.90;3.40;96040.00;;;;5041596;28;20960;-67
2022/11/19 06:54:08;;;;;;;9.50;4.80;;;2.80;99.90;3.30;96035.00;;;;5042929;28;20471;-67
2022/11/19 06:56:56;;;;;;;5.17;4.57;;;2.80;99.90;3.00;96046.00;;;;5040250;28;20452;-67
2022/11/19 06:59:45;;;;;;;8.10;5.67;;;2.70;99.90;2.80;96056.00;;;;5043617;28;20976;-68
2022/11/19 07:02:36;;;;;;;7.33;6.03;;;2.60;99.90;3.00;96056.00;;;;5039137;28;21009;-67
2022/11/19 07:05:25;;;;;;;4.73;3.53;;;2.60;99.90;3.00;96070.00;;;;5038984;28;20529;-67
2022/11/19 07:08:14;;;;;;;6.67;4.13;;;2.70;99.90;2.90;96059.00;;;;5039757;28;20474;-67
2022/11/19 07:11:24;;;;;;;5.57;4.07;;;2.60;99.90;3.10;96068.00;;;;5031644;28;20514;-67
2022/11/19 07:14:13;;;;;;;3.37;3.03;;;2.60;99.90;3.20;96058.00;;;;5038891;28;20448;-67
2022/11/19 07:17:01;;;;;;;4.73;3.53;;;2.60;99.90;3.40;96068.00;;;;5034709;28;20779;-66
2022/11/19 07:19:51;;;;;;;9.83;4.40;;;2.60;99.90;3.30;96076.00;;;;5040243;28;20937;-67
2022/11/19 07:22:41;;;;;;;9.57;5.93;;;2.70;99.90;3.40;96081.00;;;;5041966;28;20443;-67
2022/11/19 07:25:30;;;;;;;5.27;4.33;;;2.90;99.90;3.30;96088.00;;;;5038018;28;20459;-67
2022/11/19 07:28:18;;;;;;;5.90;3.67;;;2.80;99.90;3.40;96085.00;;;;5037311;28;20521;-67
2022/11/19 07:31:08;;;;;;;10.53;5.40;;;2.80;99.90;3.70;96099.00;;;;5039636;28;20485;-67
2022/11/19 07:33:56;;;;;;;8.50;5.27;;;2.90;99.90;4.00;96101.00;;;;5048210;28;20510;-67
2022/11/19 07:36:47;;;;;;;7.97;4.93;;;3.00;99.90;3.90;96105.00;;;;5035312;28;20451;-67
2022/11/19 07:39:35;;;;;;;7.17;4.93;;;3.00;99.90;4.10;96093.00;;;;5041395;28;20443;-67
2022/11/19 07:45:30;;;;;;;6.13;4.17;;;3.20;99.90;3.70;96112.00;;;;5041423;28;20497;-67
2022/11/19 07:48:19;;;;;;;6.30;4.40;;;3.10;99.90;3.80;96112.00;;;;5035262;28;20470;-66
2022/11/19 07:51:08;;;;;;;6.10;4.87;;;3.10;99.90;3.90;96106.00;;;;5033228;28;20415;-68
2022/11/19 07:53:58;;;;;;;8.63;5.27;;;3.20;99.90;4.00;96112.00;;;;5043708;28;20427;-68
2022/11/19 07:56:47;;;;;;;9.77;6.07;;;3.20;99.90;4.30;96127.00;;;;5044689;28;20513;-68
2022/11/19 07:59:35;;;;;;;6.20;3.73;;;3.30;99.90;4.50;96129.00;;;;5043333;28;20427;-69
2022/11/19 08:02:24;;;;;;;4.90;4.43;;;3.40;99.90;4.40;96136.00;;;;5033312;28;21176;-69
2022/11/19 08:05:13;;;;;;;5.57;3.73;;;3.40;99.90;4.30;96131.00;;;;5040839;28;20435;-69
2022/11/19 08:08:01;;;;;;;6.20;4.13;;;3.40;99.90;4.30;96133.00;;;;5036610;28;20474;-69
2022/11/19 08:10:51;;;;;;;7.27;4.60;;;3.50;99.90;4.30;96121.00;;;;5039832;28;20443;-70
2022/11/19 08:13:41;;;;;;;5.87;4.07;;;3.50;99.90;4.50;96126.00;;;;5041143;28;20424;-69
2022/11/19 08:19:38;;;;;;;6.93;4.37;;;3.60;99.90;4.80;96119.00;;;;5041253;28;20446;-69
2022/11/19 08:22:28;;;;;;;6.07;4.87;;;3.70;99.90;4.80;96113.00;;;;5037993;28;20213;-69
2022/11/19 08:25:16;;;;;;;5.43;4.30;;;3.70;99.90;4.80;96106.00;;;;5040632;28;20459;-69
2022/11/19 08:28:06;;;;;;;6.07;5.47;;;3.80;99.90;4.90;96120.00;;;;5040865;28;20606;-68
2022/11/19 08:30:56;;;;;;;7.10;4.93;;;3.90;99.90;5.40;96126.00;;;;5039943;28;20507;-69
2022/11/19 08:33:45;;;;;;;7.70;5.57;;;4.00;99.90;5.30;96125.00;;;;5037264;28;20801;-69
2022/11/19 08:36:33;;;;;;;7.33;5.23;;;4.00;99.90;5.30;96138.00;;;;5041295;28;20231;-69
2022/11/19 08:39:22;;;;;;;6.63;4.57;;;4.10;99.90;5.20;96132.00;;;;5035999;28;20429;-69
2022/11/19 08:45:33;;;;;;;7.27;4.23;;;4.20;99.90;5.20;96131.00;;;;5017611;28;20342;-68
2022/11/19 08:48:21;;;;;;;5.00;3.67;;;4.30;99.90;5.00;96125.00;;;;5046292;28;20221;-69
2022/11/19 08:51:13;;;;;;;5.90;3.63;;;4.30;99.90;5.20;96132.00;;;;5043411;28;20263;-69
2022/11/19 08:54:02;;;;;;;9.33;4.13;;;4.30;99.90;5.30;96145.00;;;;5048695;28;20616;-69
2022/11/19 08:56:51;;;;;;;8.30;5.90;;;4.30;99.90;5.80;96150.00;;;;5049210;28;20287;-69
2022/11/19 08:59:39;;;;;;;8.77;6.23;;;4.40;99.90;6.00;96163.00;;;;5040243;28;20247;-69
2022/11/19 09:02:29;;;;;;;10.17;6.27;;;4.50;99.90;6.10;96161.00;;;;5051035;28;20193;-68
2022/11/19 09:05:18;;;;;;;8.30;6.10;;;4.60;99.90;6.00;96166.00;;;;5038479;28;20227;-69
2022/11/19 09:08:07;;;;;;;6.57;5.67;;;4.70;99.90;5.90;96175.00;;;;5039053;28;20225;-69
2022/11/19 09:10:56;;;;;;;8.37;5.50;;;4.70;99.90;6.10;96179.00;;;;5046488;28;20250;-69
2022/11/19 09:13:45;;;;;;;9.87;5.50;;;4.80;99.90;6.00;96175.00;;;;5042541;28;20200;-69
2022/11/19 09:16:33;;;;;;;6.90;6.07;;;4.80;99.90;6.00;96175.00;;;;5043314;28;20217;-69
2022/11/19 09:19:23;;;;;;;10.97;6.90;;;4.80;99.90;6.20;96181.00;;;;5043542;28;20694;-69
2022/11/19 09:22:12;;;;;;;14.00;8.83;;;4.90;99.90;6.30;96197.00;;;;5041540;28;20669;-69
2022/11/19 09:25:01;;;;;;;12.27;7.90;;;5.00;99.90;6.40;96203.00;;;;5040750;28;20680;-69
2022/11/19 09:27:49;;;;;;;12.67;7.83;;;5.00;99.90;6.30;96199.00;;;;5045222;28;20282;-69
2022/11/19 09:30:38;;;;;;;10.37;7.53;;;5.00;99.90;6.20;96209.00;;;;5044966;28;20208;-69
2022/11/19 09:33:28;;;;;;;17.07;10.13;;;5.00;99.90;6.10;96216.00;;;;5044338;28;20312;-69
2022/11/19 09:36:20;;;;;;;13.93;9.60;;;5.00;99.90;5.90;96208.00;;;;5045414;28;20597;-69
2022/11/19 09:39:08;;;;;;;21.47;11.47;;;4.90;99.90;6.00;96220.00;;;;5039511;28;20190;-69
2022/11/19 09:42:14;;;;;;;16.77;12.37;;;4.90;99.90;6.00;96223.00;;;;5040046;28;20200;-69
2022/11/19 09:45:16;;;;;;;20.27;11.40;;;4.90;99.90;6.20;96221.00;;;;5046603;28;20367;-69
2022/11/19 09:48:25;;;;;;;17.30;12.37;;;4.90;99.90;6.20;96212.00;;;;5041866;28;20289;-68
2022/11/19 09:51:19;;;;;;;16.53;11.33;;;4.90;99.90;6.10;96208.00;;;;5041404;28;20219;-69
2022/11/19 09:54:14;;;;;;;18.63;12.10;;;4.90;99.90;5.80;96205.00;;;;5041162;28;20193;-68
2022/11/19 09:57:10;;;;;;;17.70;11.50;;;4.90;99.90;5.90;96201.00;;;;5040743;28;20235;-69
2022/11/19 10:00:02;;;;;;;18.80;12.60;;;4.80;99.90;6.00;96200.00;;;;5040956;28;20224;-70
2022/11/19 10:02:52;;;;;;;19.97;13.33;;;4.80;99.90;6.00;96202.00;;;;5038563;28;20194;-69
2022/11/19 10:05:55;;;;;;;18.57;12.40;;;4.80;99.90;5.70;96199.00;;;;5039267;28;20225;-69
2022/11/19 10:09:25;;;;;;;22.80;12.90;;;4.80;99.90;6.00;96206.00;;;;5042430;28;20220;-69
2022/11/19 10:12:45;;;;;;;21.13;12.73;;;4.80;99.90;6.00;96199.00;;;;5035629;28;20216;-69
2022/11/19 10:15:42;;;;;;;23.40;13.60;;;4.80;99.90;5.90;96192.00;;;;5043282;28;20221;-69
2022/11/19 10:18:42;;;;;;;21.10;12.80;;;4.70;99.90;5.80;96196.00;;;;5037320;28;20691;-69
2022/11/19 10:21:38;;;;;;;20.33;12.53;;;4.80;99.90;5.80;96195.00;;;;5041468;28;20224;-68
2022/11/19 10:24:40;;;;;;;17.77;12.37;;;4.70;99.90;5.80;96198.00;;;;5044524;28;20223;-69
2022/11/19 10:27:36;;;;;;;18.20;11.23;;;4.70;99.90;6.00;96203.00;;;;5039922;28;20204;-68
2022/11/19 10:30:29;;;;;;;21.77;12.90;;;4.70;99.90;6.00;96206.00;;;;5038651;28;20263;-68
2022/11/19 10:33:27;;;;;;;18.93;10.87;;;4.70;99.90;5.40;96207.00;;;;5042086;28;20205;-69
2022/11/19 10:36:22;;;;;;;19.17;12.33;;;4.70;99.90;5.40;96202.00;;;;5036011;28;20232;-69
2022/11/19 10:39:19;;;;;;;17.80;12.20;;;4.60;99.90;5.30;96220.00;;;;5039442;28;20228;-68
2022/11/19 10:42:17;;;;;;;20.07;12.77;;;4.50;99.90;4.70;96217.00;;;;5037048;28;20679;-69
2022/11/19 10:45:14;;;;;;;16.20;10.37;;;4.40;99.90;4.70;96209.00;;;;5046822;28;20244;-66
2022/11/19 10:48:12;;;;;;;16.00;9.73;;;4.10;99.90;4.90;96218.00;;;;5041114;28;20229;-66
2022/11/19 10:51:01;;;;;;;17.80;10.53;;;4.10;99.90;4.90;96218.00;;;;5040139;28;20243;-67
2022/11/19 10:53:51;;;;;;;17.37;10.57;;;4.00;99.90;4.80;96214.00;;;;5039430;28;20633;-66
2022/11/19 10:56:42;;;;;;;13.87;7.70;;;4.00;99.90;4.20;96213.00;;;;5040865;28;20224;-70
2022/11/19 10:59:33;;;;;;;17.27;11.10;;;3.80;99.90;4.70;96216.00;;;;5039060;28;20200;-68
2022/11/19 11:02:30;;;;;;;16.47;10.17;;;3.80;99.90;4.30;96219.00;;;;5043220;28;20255;-68
2022/11/19 11:05:19;;;;;;;20.63;11.50;;;3.70;99.90;4.30;96219.00;;;;5039835;28;20231;-69
2022/11/19 11:08:11;;;;;;;17.30;10.53;;;3.70;99.90;4.80;96222.00;;;;5043598;28;20420;-69
2022/11/19 11:11:01;;;;;;;15.13;9.07;;;3.70;99.90;4.70;96216.00;;;;5036837;28;20263;-69
2022/11/19 11:16:58;;;;;;;15.03;10.73;;;3.70;99.90;4.90;96198.00;;;;5049253;28;20489;-69
2022/11/19 11:19:57;;;;;;;13.53;9.53;;;3.80;99.90;4.50;96199.00;;;;5044543;28;20255;-70
2022/11/19 11:22:49;;;;;;;15.23;9.73;;;3.70;99.90;4.40;96204.00;;;;5045447;28;20529;-69
2022/11/19 11:25:40;;;;;;;12.17;8.23;;;3.70;99.90;4.70;96205.00;;;;5041969;28;20696;-69
2022/11/19 11:28:28;;;;;;;15.07;9.07;;;3.70;99.90;4.90;96197.00;;;;5037804;28;20236;-69
2022/11/19 11:31:34;;;;;;;14.27;8.20;;;3.70;99.90;4.90;96190.00;;;;5042878;28;20197;-69
2022/11/19 11:34:33;;;;;;;19.07;9.03;;;3.70;99.90;5.00;96185.00;;;;5034630;28;20208;-69
2022/11/19 11:37:22;;;;;;;12.60;8.57;;;3.80;99.90;5.10;96187.00;;;;5046165;28;20255;-69
2022/11/19 11:40:19;;;;;;;15.23;8.43;;;3.10;99.90;5.10;96190.00;;;;5036961;28;20558;-69
2022/11/19 11:43:17;;;;;;;15.17;9.37;;;3.90;99.90;4.80;96185.00;;;;5041279;28;20204;-69
2022/11/19 11:46:10;;;;;;;12.30;7.40;;;3.90;99.90;4.80;96175.00;;;;5044783;28;20451;-69
2022/11/19 11:48:59;;;;;;;11.03;8.50;;;3.80;99.90;5.00;96183.00;;;;5038863;28;20221;-69
2022/11/19 11:52:21;;;;;;;12.47;7.93;;;3.80;99.90;5.00;96180.00;;;;5037171;28;20680;-69
2022/11/19 11:55:16;;;;;;;10.87;7.93;;;3.90;99.90;5.10;96185.00;;;;5039587;28;20995;-69
2022/11/19 11:58:25;;;;;;;13.30;9.13;;;3.90;99.90;4.90;96178.00;;;;5040858;28;20201;-69
2022/11/19 12:01:17;;;;;;;12.20;8.10;;;3.90;99.90;5.00;96179.00;;;;5037099;28;20207;-70
2022/11/19 12:04:11;;;;;;;8.23;6.10;;;3.90;99.90;4.70;96174.00;;;;5038196;28;20639;-70
2022/11/19 12:07:19;;;;;;;14.47;8.43;;;3.80;99.90;4.70;96169.00;;;;5040164;28;20193;-69
2022/11/19 12:10:24;;;;;;;12.43;8.33;;;3.80;99.90;4.60;96181.00;;;;5043712;28;20229;-69
2022/11/19 12:13:56;;;;;;;15.80;7.17;;;3.80;99.90;4.50;96170.00;;;;5037048;28;20201;-69
2022/11/19 12:17:02;;;;;;;9.70;6.63;;;3.70;99.90;4.20;96169.00;;;;4962901;28;20211;-71
2022/11/19 12:20:21;;;;;;;12.67;8.17;;;3.70;99.90;4.60;96175.00;;;;5042945;28;20431;-69
2022/11/19 12:23:27;;;;;;;13.10;8.33;;;3.70;99.90;4.60;96170.00;;;;5041437;28;20954;-69
2022/11/19 12:26:23;;;;;;;14.63;8.77;;;3.60;99.90;4.60;96172.00;;;;5046948;28;20461;-69
2022/11/19 12:29:24;;;;;;;12.60;6.43;;;3.60;99.90;4.70;96176.00;;;;5044590;28;20235;-68
2022/11/19 12:32:35;;;;;;;13.80;9.50;;;3.70;99.90;5.10;96175.00;;;;5037827;28;20424;-68
2022/11/19 12:35:40;;;;;;;12.77;9.50;;;3.70;99.90;5.10;96180.00;;;;5046499;28;20220;-68
2022/11/19 12:38:43;;;;;;;12.50;8.60;;;3.80;99.90;5.10;96178.00;;;;5040375;28;20889;-68
2022/11/19 12:42:06;;;;;;;18.20;10.07;;;3.90;99.90;5.20;96181.00;;;;5041749;28;20202;-68
2022/11/19 12:45:06;;;;;;;16.80;10.33;;;3.90;99.90;5.20;96186.00;;;;5042732;28;20466;-69
2022/11/19 12:48:20;;;;;;;19.17;9.00;;;4.00;99.90;5.10;96174.00;;;;5042948;28;20285;-69
2022/11/19 12:51:22;;;;;;;15.90;8.87;;;4.00;99.90;5.30;96176.00;;;;5045972;28;20240;-69
2022/11/19 12:54:29;;;;;;;20.30;9.97;;;4.00;99.90;5.20;96176.00;;;;5039870;28;20200;-67
2022/11/19 12:57:43;;;;;;;12.03;7.40;;;4.00;99.90;4.40;96177.00;;;;5052090;28;20636;-67
2022/11/19 13:00:38;;;;;;;12.97;8.33;;;3.90;99.90;4.40;96181.00;;;;5039553;28;20460;-66
2022/11/19 13:03:47;;;;;;;11.03;8.53;;;3.70;99.90;4.90;96182.00;;;;5037828;28;20196;-66
2022/11/19 13:06:42;;;;;;;17.63;11.70;;;3.80;99.90;5.10;96181.00;;;;5033915;28;20253;-66
2022/11/19 13:09:39;;;;;;;22.27;12.73;;;3.80;99.90;5.20;96176.00;;;;5037830;28;20652;-66
2022/11/19 13:12:36;;;;;;;24.90;15.27;;;3.90;99.90;5.20;96173.00;;;;5043756;28;20234;-66
2022/11/19 13:15:30;;;;;;;21.60;15.33;;;3.90;99.90;5.00;96163.00;;;;5040231;28;20228;-66
2022/11/19 13:18:20;;;;;;;16.73;11.20;;;3.90;99.90;4.90;96166.00;;;;5042829;28;20207;-69
2022/11/19 13:21:37;;;;;;;10.90;7.60;;;3.90;99.90;4.50;96160.00;;;;5042546;28;20251;-66
2022/11/19 13:24:34;;;;;;;12.23;8.27;;;3.90;99.90;4.80;96163.00;;;;5042885;28;20711;-66
2022/11/19 13:27:28;;;;;;;13.50;7.30;;;3.80;99.90;4.90;96152.00;;;;5042291;28;20471;-66
2022/11/19 13:30:20;;;;;;;12.93;7.77;;;3.80;99.90;5.00;96168.00;;;;5038536;28;20720;-68